Time;durP1;ratioP1;P1;durP2;ratioP2;P2;SDS_P1;SDS_P2;PMS_P1;PMS_P2;Temp;Humidity;BMP_temperature;BMP_pressure;BME280_temperature;BME280_humidity;BME280_pressure;Samples;Min_cycle;Max_cycle;Signal;HPM_P1;HPM_P2
2023/09/18 00:01:49;;;;;;;16.77;12.57;;;19.80;99.90;;;;;;4992390;28;20038;-85
2023/09/18 00:04:15;;;;;;;13.02;11.65;;;19.80;99.90;;;;;;4993288;28;20026;-83
2023/09/18 00:06:40;;;;;;;15.05;12.18;;;19.80;99.90;;;;;;4994525;28;20049;-83
2023/09/18 00:09:11;;;;;;;15.07;12.13;;;19.80;99.90;;;;;;4994409;28;20048;-84
2023/09/18 00:11:37;;;;;;;14.52;11.95;;;19.80;99.90;;;;;;4994579;28;20103;-83
2023/09/18 00:14:03;;;;;;;17.27;12.00;;;19.80;99.90;;;;;;4992956;28;20023;-84
2023/09/18 00:16:29;;;;;;;14.32;12.02;;;19.80;99.90;;;;;;4994607;28;20037;-84
2023/09/18 00:18:54;;;;;;;15.43;11.82;;;19.80;99.90;;;;;;4993959;28;20034;-83
2023/09/18 00:21:20;;;;;;;14.02;11.07;;;19.80;99.90;;;;;;4994302;28;20022;-84
2023/09/18 00:23:46;;;;;;;14.55;12.07;;;19.80;99.90;;;;;;4994118;28;20507;-84
2023/09/18 00:26:12;;;;;;;15.45;11.82;;;19.80;99.90;;;;;;4994063;28;20037;-83
2023/09/18 00:28:37;;;;;;;16.15;11.82;;;19.80;99.90;;;;;;4994188;28;20035;-83
2023/09/18 00:31:03;;;;;;;15.23;11.82;;;19.80;99.90;;;;;;4993931;28;20026;-84
2023/09/18 00:33:28;;;;;;;14.45;11.95;;;19.90;99.90;;;;;;4994273;28;20058;-84
2023/09/18 00:35:54;;;;;;;15.70;11.95;;;19.80;99.90;;;;;;4992473;28;20037;-82
2023/09/18 00:38:20;;;;;;;14.07;12.18;;;19.80;99.90;;;;;;4994002;28;20069;-84
2023/09/18 00:40:46;;;;;;;14.45;11.93;;;19.80;99.90;;;;;;4994195;28;20113;-84
2023/09/18 00:43:12;;;;;;;15.05;12.25;;;19.80;99.90;;;;;;4992546;28;20022;-83
2023/09/18 00:45:44;;;;;;;17.35;12.25;;;19.70;99.90;;;;;;4993733;28;20060;-83
2023/09/18 00:48:11;;;;;;;15.70;11.98;;;19.80;99.90;;;;;;4993862;28;20026;-83
2023/09/18 00:50:38;;;;;;;15.40;12.27;;;19.80;99.90;;;;;;4976139;28;20026;-83
2023/09/18 00:53:04;;;;;;;17.85;11.43;;;19.80;99.90;;;;;;4993487;28;20062;-84
2023/09/18 00:55:30;;;;;;;16.75;12.27;;;19.80;99.90;;;;;;4976076;28;20230;-83
2023/09/18 00:57:56;;;;;;;14.98;11.82;;;19.80;99.90;;;;;;4993265;28;20481;-84
2023/09/18 01:00:22;;;;;;;14.93;11.73;;;19.80;99.90;;;;;;4993529;28;20077;-84
2023/09/18 01:02:48;;;;;;;13.77;11.52;;;19.80;99.90;;;;;;4991992;28;20057;-84
2023/09/18 01:05:16;;;;;;;15.93;12.43;;;19.90;99.90;;;;;;4992227;28;20380;-84
2023/09/18 01:07:42;;;;;;;18.20;12.50;;;19.80;99.90;;;;;;4993467;28;20034;-85
2023/09/18 01:10:09;;;;;;;14.60;12.13;;;19.80;99.90;;;;;;4975948;28;20030;-84
2023/09/18 01:12:47;;;;;;;15.43;12.70;;;19.80;99.90;;;;;;4995341;28;20473;-84
2023/09/18 01:15:30;;;;;;;17.85;12.75;;;19.80;99.90;;;;;;4996592;28;20022;-83
2023/09/18 01:17:56;;;;;;;15.93;12.40;;;19.80;99.90;;;;;;4996246;28;20030;-84
2023/09/18 01:20:21;;;;;;;17.10;12.40;;;19.80;99.90;;;;;;4996944;28;20164;-85
2023/09/18 01:22:49;;;;;;;15.90;11.88;;;19.80;99.90;;;;;;4997588;28;20109;-84
2023/09/18 01:25:15;;;;;;;15.13;12.20;;;19.80;99.90;;;;;;4997554;28;20583;-84
2023/09/18 01:27:41;;;;;;;19.00;12.45;;;19.80;99.90;;;;;;4997171;28;20046;-84
2023/09/18 01:30:08;;;;;;;14.10;11.60;;;19.70;99.90;;;;;;4997551;28;20022;-84
2023/09/18 01:32:36;;;;;;;16.73;12.32;;;19.80;99.90;;;;;;4994097;28;20022;-84
2023/09/18 01:35:08;;;;;;;12.90;11.25;;;19.80;99.90;;;;;;4993173;28;20018;-85
2023/09/18 01:37:35;;;;;;;15.10;12.60;;;19.80;99.90;;;;;;4992442;28;20392;-84
2023/09/18 01:40:06;;;;;;;16.35;12.30;;;19.80;99.90;;;;;;4993144;28;20026;-85
2023/09/18 01:42:32;;;;;;;16.40;12.02;;;19.80;99.90;;;;;;4991398;28;20065;-84
2023/09/18 01:44:58;;;;;;;15.13;12.48;;;19.80;99.90;;;;;;4992821;28;20022;-85
2023/09/18 01:47:24;;;;;;;16.40;12.43;;;19.80;99.90;;;;;;4992740;28;20038;-84
2023/09/18 01:49:50;;;;;;;18.60;12.85;;;19.70;99.90;;;;;;4992537;28;20034;-84
2023/09/18 01:52:16;;;;;;;14.07;12.18;;;19.80;99.90;;;;;;4991120;28;20026;-84
2023/09/18 01:54:41;;;;;;;13.93;11.98;;;19.80;99.90;;;;;;4992667;28;20374;-84
2023/09/18 01:57:07;;;;;;;15.45;11.82;;;19.90;99.90;;;;;;4994464;28;20103;-89
2023/09/18 01:59:33;;;;;;;17.75;13.07;;;19.90;99.90;;;;;;4994552;28;20161;-87
2023/09/18 02:01:59;;;;;;;16.48;12.85;;;19.80;99.90;;;;;;4994577;28;20018;-88
2023/09/18 02:04:28;;;;;;;17.08;13.77;;;19.90;99.90;;;;;;4994598;28;20026;-90
2023/09/18 02:06:54;;;;;;;15.85;12.48;;;19.80;99.90;;;;;;4993917;28;20046;-87
2023/09/18 02:09:19;;;;;;;16.55;13.20;;;19.80;99.90;;;;;;4994130;28;20037;-88
2023/09/18 02:11:46;;;;;;;16.23;13.55;;;19.80;99.90;;;;;;4994138;28;20058;-91
2023/09/18 02:14:12;;;;;;;16.52;13.32;;;19.90;99.90;;;;;;4994455;28;20034;-88
2023/09/18 02:16:44;;;;;;;15.02;12.20;;;19.80;99.90;;;;;;4994313;28;20105;-89
2023/09/18 02:19:11;;;;;;;17.98;13.25;;;19.90;99.90;;;;;;4994494;28;20022;-90
2023/09/18 02:21:37;;;;;;;19.02;14.00;;;19.90;99.90;;;;;;4994414;28;20058;-89
2023/09/18 02:24:03;;;;;;;15.10;12.23;;;19.80;99.90;;;;;;4995155;28;20042;-89
2023/09/18 02:26:29;;;;;;;17.65;13.23;;;19.90;99.90;;;;;;4998476;28;20038;-88
2023/09/18 02:28:58;;;;;;;18.25;13.57;;;19.80;99.90;;;;;;4998505;28;20092;-88
2023/09/18 02:31:23;;;;;;;16.13;13.25;;;19.80;99.90;;;;;;4997147;28;20050;-87
2023/09/18 02:33:49;;;;;;;16.27;13.27;;;19.80;99.90;;;;;;4998503;28;20112;-89
2023/09/18 02:36:15;;;;;;;16.00;13.65;;;19.90;99.90;;;;;;4998474;28;20080;-89
2023/09/18 02:38:41;;;;;;;15.98;13.20;;;19.80;99.90;;;;;;4997912;28;20173;-89
2023/09/18 02:41:06;;;;;;;16.33;13.32;;;19.80;99.90;;;;;;4998521;28;20050;-90
2023/09/18 02:43:32;;;;;;;15.68;12.20;;;19.80;99.90;;;;;;4998205;28;20030;-88
2023/09/18 02:45:57;;;;;;;15.60;13.32;;;19.80;99.90;;;;;;4997941;28;20061;-88
2023/09/18 02:48:23;;;;;;;16.00;13.73;;;19.80;99.90;;;;;;4997811;28;20034;-88
2023/09/18 02:50:49;;;;;;;15.18;12.13;;;19.80;99.90;;;;;;4996636;28;20065;-87
2023/09/18 02:53:19;;;;;;;16.50;12.27;;;19.90;99.90;;;;;;4997788;28;20027;-88
2023/09/18 02:55:46;;;;;;;14.88;11.85;;;19.90;99.90;;;;;;4980366;28;20512;-89
2023/09/18 02:58:12;;;;;;;15.18;11.85;;;19.90;99.90;;;;;;4980417;28;20403;-88
2023/09/18 03:00:44;;;;;;;16.30;12.10;;;19.90;99.90;;;;;;4997449;28;20030;-88
2023/09/18 03:03:11;;;;;;;14.25;11.60;;;19.90;99.90;;;;;;4997383;28;20026;-87
2023/09/18 03:05:37;;;;;;;16.55;12.77;;;19.80;99.90;;;;;;4997629;28;20551;-89
2023/09/18 03:08:03;;;;;;;16.25;12.43;;;19.90;99.90;;;;;;4997813;28;20084;-90
2023/09/18 03:10:36;;;;;;;15.57;11.85;;;19.90;99.90;;;;;;4980098;28;20027;-88
2023/09/18 03:13:05;;;;;;;15.20;12.02;;;19.90;99.90;;;;;;4997523;28;20022;-89
2023/09/18 03:15:31;;;;;;;14.32;12.25;;;19.90;99.90;;;;;;4997245;28;20034;-89
2023/09/18 03:17:57;;;;;;;16.27;12.70;;;19.90;99.90;;;;;;4997387;28;20027;-89
2023/09/18 03:20:27;;;;;;;15.45;11.38;;;20.00;99.90;;;;;;4997035;28;20069;-89
2023/09/18 03:22:55;;;;;;;15.65;11.73;;;19.90;99.90;;;;;;4997216;28;20026;-89
2023/09/18 03:25:21;;;;;;;15.93;12.02;;;19.90;99.90;;;;;;4997041;28;20077;-89
2023/09/18 03:27:48;;;;;;;16.23;12.05;;;19.90;99.90;;;;;;4997119;28;20074;-89
2023/09/18 03:30:15;;;;;;;14.60;12.65;;;19.90;99.90;;;;;;4996255;28;20022;-89
2023/09/18 03:32:42;;;;;;;13.27;11.32;;;19.90;99.90;;;;;;4997287;28;20057;-88
2023/09/18 03:35:15;;;;;;;13.30;11.13;;;19.90;99.90;;;;;;4996531;28;20022;-88
2023/09/18 03:37:41;;;;;;;14.68;11.57;;;19.80;99.90;;;;;;4997141;28;20050;-89
2023/09/18 03:40:08;;;;;;;15.52;11.32;;;19.90;99.90;;;;;;4996768;28;20507;-89
2023/09/18 03:42:34;;;;;;;16.95;11.90;;;19.90;99.90;;;;;;4996682;28;20026;-89
2023/09/18 03:44:59;;;;;;;15.43;11.68;;;20.00;99.90;;;;;;4979458;28;20093;-89
2023/09/18 03:47:25;;;;;;;14.93;11.18;;;20.00;99.90;;;;;;4995355;28;20046;-90
2023/09/18 03:49:51;;;;;;;14.25;11.52;;;20.00;99.90;;;;;;4997656;28;20026;-89
2023/09/18 03:52:17;;;;;;;15.18;10.85;;;20.00;99.90;;;;;;4997813;28;20102;-87
2023/09/18 03:54:42;;;;;;;12.38;10.90;;;20.00;99.90;;;;;;4997470;28;20035;-87
2023/09/18 03:57:08;;;;;;;15.57;11.10;;;20.00;99.90;;;;;;4979907;28;20034;-90
2023/09/18 03:59:33;;;;;;;13.95;11.38;;;20.10;99.90;;;;;;4997713;28;20121;-89
2023/09/18 04:01:59;;;;;;;15.48;11.18;;;19.90;99.90;;;;;;4997162;28;20491;-89
2023/09/18 04:04:24;;;;;;;14.05;10.50;;;20.00;99.90;;;;;;4997086;28;20031;-88
2023/09/18 04:06:50;;;;;;;13.63;10.95;;;20.10;99.90;;;;;;4979873;28;20452;-89
2023/09/18 04:09:15;;;;;;;13.88;10.52;;;20.00;99.90;;;;;;4996977;28;20101;-89
2023/09/18 04:11:41;;;;;;;14.70;10.23;;;20.00;99.90;;;;;;4997301;28;20049;-89
2023/09/18 04:14:07;;;;;;;14.93;11.23;;;20.10;99.90;;;;;;4979810;28;20030;-89
2023/09/18 04:16:35;;;;;;;13.38;10.15;;;20.00;99.90;;;;;;4996963;28;20500;-88
2023/09/18 04:19:01;;;;;;;15.77;10.88;;;20.10;99.90;;;;;;4997055;28;20083;-89
2023/09/18 04:21:29;;;;;;;14.23;10.18;;;20.00;99.90;;;;;;4996859;28;20538;-87
2023/09/18 04:23:57;;;;;;;13.63;10.57;;;20.20;99.90;;;;;;4996418;28;20488;-87
2023/09/18 04:26:24;;;;;;;14.70;10.20;;;20.00;99.90;;;;;;4996383;28;20022;-89
2023/09/18 04:28:49;;;;;;;15.77;9.30;;;20.00;99.90;;;;;;4996273;28;20034;-89
2023/09/18 04:31:16;;;;;;;12.70;8.60;;;20.10;99.90;;;;;;4995387;28;20085;-88
2023/09/18 04:33:42;;;;;;;12.27;9.07;;;20.00;99.90;;;;;;4978609;28;20054;-89
2023/09/18 04:36:07;;;;;;;12.55;7.65;;;20.00;99.90;;;;;;4986304;28;20023;-88
2023/09/18 04:38:33;;;;;;;10.05;7.53;;;20.10;99.90;;;;;;4995366;28;20037;-87
2023/09/18 04:41:01;;;;;;;11.40;6.80;;;20.10;99.90;;;;;;4995664;28;20026;-87
2023/09/18 04:43:29;;;;;;;11.27;7.78;;;20.00;99.90;;;;;;4995393;28;20030;-89
2023/09/18 04:45:55;;;;;;;9.85;7.00;;;20.10;99.90;;;;;;4995219;28;20034;-87
2023/09/18 04:48:21;;;;;;;12.75;7.32;;;20.10;99.90;;;;;;4977339;28;20030;-86
2023/09/18 04:50:46;;;;;;;9.10;7.28;;;20.10;99.90;;;;;;4986239;28;20437;-87
2023/09/18 04:53:13;;;;;;;11.88;7.50;;;20.10;99.90;;;;;;4995122;28;20049;-86
2023/09/18 04:55:39;;;;;;;12.07;7.07;;;20.10;99.90;;;;;;4995630;28;20113;-88
2023/09/18 04:58:05;;;;;;;10.60;6.68;;;20.10;99.90;;;;;;4995435;28;20080;-88
2023/09/18 05:00:31;;;;;;;15.70;6.68;;;20.20;99.90;;;;;;4977979;28;20022;-86
2023/09/18 05:03:00;;;;;;;13.70;7.80;;;20.10;99.90;;;;;;4995025;28;20037;-87
2023/09/18 05:05:25;;;;;;;10.48;7.55;;;20.20;99.90;;;;;;4995436;28;20022;-88
2023/09/18 05:07:51;;;;;;;10.85;7.13;;;20.20;99.90;;;;;;4985597;28;20377;-88
2023/09/18 05:10:17;;;;;;;10.45;6.00;;;20.10;99.90;;;;;;4984879;28;20068;-86
2023/09/18 05:12:42;;;;;;;15.07;7.40;;;20.20;99.90;;;;;;4994742;28;20026;-87
2023/09/18 05:15:10;;;;;;;14.20;6.95;;;20.20;99.90;;;;;;4981339;28;20027;-85
2023/09/18 05:17:47;;;;;;;12.63;7.65;;;20.20;99.90;;;;;;4993010;28;20488;-87
2023/09/18 05:20:15;;;;;;;15.70;7.55;;;20.20;99.90;;;;;;4991940;28;20026;-87
2023/09/18 05:22:42;;;;;;;16.08;7.45;;;20.20;99.90;;;;;;4993039;28;20029;-88
2023/09/18 05:25:09;;;;;;;10.15;6.32;;;20.20;99.90;;;;;;4994473;28;20473;-86
2023/09/18 05:27:36;;;;;;;12.52;6.32;;;20.20;99.90;;;;;;4993199;28;20129;-87
2023/09/18 05:30:02;;;;;;;11.95;7.22;;;20.10;99.90;;;;;;4990633;28;20073;-86
2023/09/18 05:32:28;;;;;;;13.50;7.65;;;20.20;99.90;;;;;;4994408;28;20026;-83
2023/09/18 05:34:53;;;;;;;14.80;8.15;;;20.10;99.90;;;;;;4994015;28;20058;-87
2023/09/18 05:37:19;;;;;;;17.42;8.13;;;20.10;99.90;;;;;;4993836;28;20034;-88
2023/09/18 05:39:44;;;;;;;12.38;8.60;;;20.10;99.90;;;;;;4992754;28;20461;-86
2023/09/18 05:42:10;;;;;;;11.82;7.45;;;20.10;99.90;;;;;;4989522;28;20030;-86
2023/09/18 05:44:39;;;;;;;10.88;7.30;;;20.10;99.90;;;;;;4994182;28;20152;-87
2023/09/18 05:47:04;;;;;;;12.45;8.30;;;20.10;99.90;;;;;;4992589;28;20444;-86
2023/09/18 05:49:30;;;;;;;14.93;8.25;;;20.10;99.90;;;;;;4994396;28;20026;-86
2023/09/18 05:51:55;;;;;;;12.35;8.13;;;20.10;99.90;;;;;;4993155;28;20064;-86
2023/09/18 05:54:21;;;;;;;11.30;7.88;;;20.10;99.90;;;;;;4993224;28;20053;-87
2023/09/18 05:56:47;;;;;;;13.07;8.38;;;20.10;99.90;;;;;;4975995;28;20034;-88
2023/09/18 05:59:15;;;;;;;13.50;7.78;;;20.10;99.90;;;;;;4976150;28;20419;-84
2023/09/18 06:01:41;;;;;;;15.30;7.68;;;20.00;99.90;;;;;;4993101;28;20085;-87
2023/09/18 06:04:06;;;;;;;12.15;8.40;;;20.10;99.90;;;;;;4972417;28;20026;-88
2023/09/18 06:06:32;;;;;;;14.20;8.55;;;20.20;99.90;;;;;;4994239;28;20092;-87
2023/09/18 06:08:58;;;;;;;10.48;7.72;;;20.10;99.90;;;;;;4994096;28;20062;-88
2023/09/18 06:11:23;;;;;;;11.32;7.90;;;20.10;99.90;;;;;;4993936;28;20640;-88
2023/09/18 06:13:49;;;;;;;12.35;8.23;;;20.10;99.90;;;;;;4980759;28;20034;-84
2023/09/18 06:16:14;;;;;;;11.95;8.40;;;20.10;99.90;;;;;;4987502;28;20043;-87
2023/09/18 06:18:40;;;;;;;14.25;8.50;;;20.10;99.90;;;;;;4984633;28;20026;-88
2023/09/18 06:21:06;;;;;;;12.00;7.85;;;20.00;99.90;;;;;;4993807;28;20030;-88
2023/09/18 06:23:31;;;;;;;13.43;8.13;;;20.20;99.90;;;;;;4992945;28;20062;-87
2023/09/18 06:25:59;;;;;;;14.98;7.63;;;20.20;99.90;;;;;;4994015;28;20037;-87
2023/09/18 06:28:24;;;;;;;15.00;7.57;;;20.10;99.90;;;;;;4993915;28;20031;-86
2023/09/18 06:30:50;;;;;;;11.52;7.65;;;20.20;99.90;;;;;;4982314;28;20464;-85
2023/09/18 06:33:16;;;;;;;15.10;8.25;;;20.20;99.90;;;;;;4992508;28;20117;-86
2023/09/18 06:35:42;;;;;;;12.43;7.40;;;20.30;99.90;;;;;;4993514;28;20025;-88
2023/09/18 06:38:10;;;;;;;11.57;7.63;;;20.30;99.90;;;;;;4993006;28;20022;-85
2023/09/18 06:40:35;;;;;;;12.57;7.63;;;20.30;99.90;;;;;;4993134;28;20061;-87
2023/09/18 06:43:01;;;;;;;10.45;6.32;;;20.30;99.90;;;;;;4993575;28;20050;-86
2023/09/18 06:45:28;;;;;;;9.82;7.13;;;20.30;99.90;;;;;;4992717;28;20022;-85
2023/09/18 06:47:53;;;;;;;9.82;6.53;;;20.40;99.90;;;;;;4992282;28;20066;-86
2023/09/18 06:50:19;;;;;;;12.10;6.15;;;20.30;99.90;;;;;;4993789;28;20057;-87
2023/09/18 06:52:46;;;;;;;11.88;6.40;;;20.40;99.90;;;;;;4994002;28;20034;-88
2023/09/18 06:55:12;;;;;;;8.90;6.47;;;20.40;99.90;;;;;;4994017;28;20026;-88
2023/09/18 06:57:38;;;;;;;10.18;5.47;;;20.50;99.90;;;;;;4993661;28;20108;-84
2023/09/18 07:00:05;;;;;;;11.90;5.53;;;20.40;99.90;;;;;;4993465;28;20030;-84
2023/09/18 07:02:30;;;;;;;9.90;4.97;;;20.40;99.90;;;;;;4992888;28;20031;-85
2023/09/18 07:04:56;;;;;;;8.77;5.20;;;20.50;99.90;;;;;;4993001;28;20030;-87
2023/09/18 07:07:25;;;;;;;9.95;5.38;;;20.50;99.90;;;;;;4992923;28;20388;-84
2023/09/18 07:09:51;;;;;;;10.00;4.25;;;20.50;99.90;;;;;;4993240;28;20424;-87
2023/09/18 07:12:19;;;;;;;8.50;4.18;;;20.60;99.90;;;;;;4994679;28;20384;-82
2023/09/18 07:14:48;;;;;;;5.80;3.75;;;20.60;99.90;;;;;;4996390;28;20026;-85
2023/09/18 07:17:14;;;;;;;6.78;4.03;;;20.60;99.90;;;;;;4975759;28;20461;-85
2023/09/18 07:19:39;;;;;;;6.75;3.65;;;20.70;99.90;;;;;;4994259;28;20050;-87
2023/09/18 07:22:05;;;;;;;6.45;2.85;;;20.70;99.90;;;;;;4995158;28;20026;-87
2023/09/18 07:24:30;;;;;;;7.88;3.35;;;20.70;99.90;;;;;;4995219;28;20050;-85
2023/09/18 07:26:57;;;;;;;6.60;3.30;;;20.80;99.90;;;;;;4995697;28;20042;-85
2023/09/18 07:29:25;;;;;;;4.95;2.70;;;20.80;99.90;;;;;;4991952;28;20038;-85
2023/09/18 07:31:51;;;;;;;4.63;2.63;;;20.80;99.90;;;;;;4985662;28;20027;-87
2023/09/18 07:34:17;;;;;;;4.55;2.13;;;20.90;99.90;;;;;;4995473;28;20028;-89
2023/09/18 07:36:44;;;;;;;6.38;2.70;;;20.80;99.90;;;;;;4994855;28;20018;-86
2023/09/18 07:39:11;;;;;;;6.65;2.80;;;20.90;99.90;;;;;;4994738;28;20053;-85
2023/09/18 07:41:37;;;;;;;5.35;2.55;;;20.80;99.90;;;;;;4984944;28;20022;-85
2023/09/18 07:44:02;;;;;;;6.20;2.63;;;20.80;99.90;;;;;;4994707;28;20033;-87
2023/09/18 07:46:28;;;;;;;4.32;2.15;;;20.90;99.90;;;;;;4994915;28;20053;-84
2023/09/18 07:48:54;;;;;;;5.10;1.67;;;21.00;99.90;;;;;;4994747;28;20030;-87
2023/09/18 07:51:19;;;;;;;4.43;2.15;;;20.90;99.90;;;;;;4985136;28;20070;-84
2023/09/18 07:53:46;;;;;;;3.50;1.83;;;20.90;99.90;;;;;;4994645;28;20026;-85
2023/09/18 07:56:11;;;;;;;5.75;1.75;;;20.90;99.90;;;;;;4994245;28;20030;-86
2023/09/18 07:58:38;;;;;;;3.72;2.13;;;21.00;99.90;;;;;;4994110;28;20029;-89
2023/09/18 08:01:05;;;;;;;4.00;1.50;;;20.90;99.90;;;;;;4980458;28;20027;-88
2023/09/18 08:03:31;;;;;;;4.70;1.77;;;20.90;99.90;;;;;;4992176;28;20092;-87
2023/09/18 08:05:57;;;;;;;5.30;1.60;;;21.00;99.90;;;;;;4994526;28;20027;-84
2023/09/18 08:08:25;;;;;;;4.93;1.60;;;21.00;99.90;;;;;;4994717;28;20027;-84
2023/09/18 08:10:52;;;;;;;4.25;1.73;;;21.00;99.90;;;;;;4994690;28;20027;-86
2023/09/18 08:13:17;;;;;;;3.67;1.40;;;21.00;99.90;;;;;;4994864;28;20022;-84
2023/09/18 08:15:43;;;;;;;5.43;1.70;;;21.00;99.90;;;;;;4994619;28;20022;-85
2023/09/18 08:18:10;;;;;;;5.90;1.73;;;21.10;99.80;;;;;;4994288;28;20022;-87
2023/09/18 08:20:39;;;;;;;4.25;2.08;;;21.00;99.50;;;;;;4994654;28;20026;-86
2023/09/18 08:23:05;;;;;;;3.88;1.73;;;21.00;99.50;;;;;;4993233;28;20026;-86
2023/09/18 08:25:32;;;;;;;5.63;1.48;;;21.00;99.30;;;;;;4994569;28;20040;-86
2023/09/18 08:27:58;;;;;;;3.45;1.35;;;21.10;99.30;;;;;;4976904;28;20120;-86
2023/09/18 08:30:24;;;;;;;7.85;1.75;;;21.10;99.10;;;;;;4994118;28;20035;-86
2023/09/18 08:32:49;;;;;;;6.47;2.28;;;21.10;99.00;;;;;;4993742;28;20032;-85
2023/09/18 08:35:15;;;;;;;3.63;1.60;;;21.10;98.90;;;;;;4994225;28;20113;-87
2023/09/18 08:37:41;;;;;;;5.05;1.20;;;21.10;98.90;;;;;;4993707;28;20403;-86
2023/09/18 08:40:13;;;;;;;2.28;1.10;;;21.10;98.80;;;;;;4993902;28;20026;-85
2023/09/18 08:42:51;;;;;;;5.32;1.20;;;21.20;98.80;;;;;;4994031;28;20027;-85
2023/09/18 08:45:27;;;;;;;2.28;1.20;;;21.30;98.80;;;;;;4993515;28;20074;-85
2023/09/18 08:47:54;;;;;;;3.05;1.20;;;21.30;98.60;;;;;;4993599;28;20125;-82
2023/09/18 08:50:20;;;;;;;4.53;1.38;;;21.30;98.40;;;;;;4993646;28;20030;-83
2023/09/18 08:52:48;;;;;;;8.48;1.98;;;21.40;97.90;;;;;;4993741;28;20026;-79
2023/09/18 08:55:14;;;;;;;4.75;1.48;;;21.40;97.40;;;;;;4993641;28;20027;-84
2023/09/18 08:57:42;;;;;;;3.90;1.40;;;21.40;97.50;;;;;;4993205;28;20034;-87
2023/09/18 09:00:11;;;;;;;6.85;1.30;;;21.40;97.30;;;;;;4993611;28;20034;-83
2023/09/18 09:02:38;;;;;;;2.80;1.10;;;21.40;97.40;;;;;;4975843;28;20485;-85
2023/09/18 09:05:04;;;;;;;4.25;1.42;;;21.40;97.40;;;;;;4993403;28;20019;-82
2023/09/18 09:07:31;;;;;;;4.30;1.05;;;21.40;97.20;;;;;;4975752;28;20038;-83
2023/09/18 09:09:56;;;;;;;4.45;1.70;;;21.50;97.10;;;;;;4993376;28;20030;-84
2023/09/18 09:13:00;;;;;;;3.92;1.33;;;21.50;96.90;;;;;;4975920;28;20018;-85
2023/09/18 09:15:34;;;;;;;5.22;1.35;;;21.50;96.80;;;;;;4992474;28;20476;-84
2023/09/18 09:18:08;;;;;;;4.07;1.48;;;21.50;96.50;;;;;;4990801;28;20053;-82
2023/09/18 09:20:35;;;;;;;2.72;1.05;;;21.40;96.40;;;;;;4993462;28;20023;-86
2023/09/18 09:23:02;;;;;;;4.03;1.45;;;21.50;96.50;;;;;;4993395;28;20022;-86
2023/09/18 09:25:31;;;;;;;4.32;1.00;;;21.50;96.50;;;;;;4993161;28;20080;-86
2023/09/18 09:27:58;;;;;;;3.20;1.00;;;21.50;96.40;;;;;;4992867;28;20034;-83
2023/09/18 09:30:26;;;;;;;4.28;1.15;;;21.70;96.40;;;;;;4975811;28;20022;-81
2023/09/18 09:32:54;;;;;;;1.85;0.77;;;21.60;96.30;;;;;;4992978;28;20022;-85
2023/09/18 09:35:40;;;;;;;3.83;1.30;;;21.60;96.10;;;;;;4993098;28;20041;-84
2023/09/18 09:38:15;;;;;;;6.10;1.05;;;21.60;95.90;;;;;;4990594;28;20038;-85
2023/09/18 09:40:43;;;;;;;2.55;1.20;;;21.70;95.90;;;;;;4993215;28;20029;-88
2023/09/18 09:43:13;;;;;;;4.35;1.20;;;21.70;95.70;;;;;;4992774;28;20030;-85
2023/09/18 09:45:40;;;;;;;5.55;1.00;;;21.70;95.40;;;;;;4992811;28;20027;-84
2023/09/18 09:48:07;;;;;;;5.30;1.00;;;21.80;95.20;;;;;;4992830;28;20050;-86
2023/09/18 09:50:44;;;;;;;7.93;1.42;;;21.80;95.10;;;;;;4992669;28;20030;-83
2023/09/18 09:53:09;;;;;;;3.05;0.80;;;21.80;95.10;;;;;;4992693;28;20037;-83
2023/09/18 09:55:36;;;;;;;3.60;0.80;;;21.90;95.10;;;;;;4993933;28;20034;-81
2023/09/18 09:58:04;;;;;;;2.67;0.95;;;22.00;95.10;;;;;;4992189;28;20018;-82
2023/09/18 10:00:42;;;;;;;1.75;0.77;;;22.20;94.90;;;;;;4992074;28;20061;-81
2023/09/18 10:03:13;;;;;;;3.88;0.90;;;22.30;94.80;;;;;;4990972;28;20058;-83
2023/09/18 10:05:42;;;;;;;2.45;0.90;;;22.50;94.70;;;;;;4992885;28;20061;-80
2023/09/18 10:08:12;;;;;;;3.72;0.70;;;22.70;94.60;;;;;;4993246;28;20125;-82
2023/09/18 10:10:47;;;;;;;1.90;0.90;;;22.80;94.30;;;;;;4993523;28;20022;-79
2023/09/18 10:13:17;;;;;;;3.25;0.80;;;23.00;93.90;;;;;;4975711;28;20019;-82
2023/09/18 10:15:43;;;;;;;1.55;0.73;;;23.10;93.50;;;;;;4992505;28;20080;-85
2023/09/18 10:18:25;;;;;;;2.30;0.68;;;23.30;93.20;;;;;;4992293;28;20035;-83
2023/09/18 10:21:14;;;;;;;2.58;0.70;;;23.40;93.00;;;;;;4992870;28;20557;-81
2023/09/18 10:23:58;;;;;;;4.07;0.93;;;23.40;92.50;;;;;;4991584;28;20046;-82
2023/09/18 10:26:28;;;;;;;2.80;0.98;;;23.40;91.90;;;;;;4974668;28;20069;-83
2023/09/18 10:28:58;;;;;;;3.63;0.90;;;23.40;91.80;;;;;;4992883;28;20073;-83
2023/09/18 10:31:25;;;;;;;2.22;0.88;;;23.30;91.70;;;;;;4992932;28;20023;-82
2023/09/18 10:33:54;;;;;;;2.72;1.05;;;23.40;91.60;;;;;;4993189;28;20066;-82
2023/09/18 10:36:20;;;;;;;6.30;1.38;;;23.40;91.30;;;;;;4993389;28;20034;-82
2023/09/18 10:38:51;;;;;;;4.57;1.30;;;23.50;91.10;;;;;;4993131;28;20035;-83
2023/09/18 10:41:22;;;;;;;3.75;1.00;;;23.40;90.40;;;;;;4992655;28;20035;-82
2023/09/18 10:43:53;;;;;;;3.95;1.10;;;23.40;90.30;;;;;;4992459;28;20022;-82
2023/09/18 10:46:19;;;;;;;7.15;1.35;;;23.40;90.10;;;;;;4994358;28;20539;-80
2023/09/18 10:48:46;;;;;;;2.95;1.10;;;23.40;90.10;;;;;;4996781;28;20030;-80
2023/09/18 10:51:13;;;;;;;7.45;1.20;;;23.40;89.80;;;;;;4978663;28;20042;-82
2023/09/18 10:53:40;;;;;;;5.80;1.52;;;23.30;89.40;;;;;;4976465;28;20037;-80
2023/09/18 10:56:06;;;;;;;3.70;1.08;;;23.30;89.00;;;;;;4995309;28;20084;-82
2023/09/18 10:58:35;;;;;;;3.53;1.25;;;23.30;89.00;;;;;;4977182;28;20381;-80
2023/09/18 11:01:02;;;;;;;3.80;1.20;;;23.20;88.50;;;;;;4994965;28;20029;-84
2023/09/18 11:03:27;;;;;;;3.65;0.80;;;23.10;88.50;;;;;;4994611;28;20057;-80
2023/09/18 11:06:09;;;;;;;3.38;1.05;;;23.00;88.30;;;;;;4995312;28;20473;-82
2023/09/18 11:08:48;;;;;;;4.05;1.50;;;22.90;88.40;;;;;;4975643;28;20105;-83
2023/09/18 11:11:19;;;;;;;5.07;1.00;;;23.00;88.30;;;;;;4995313;28;20604;-82
2023/09/18 11:13:47;;;;;;;6.93;1.20;;;23.10;88.60;;;;;;4977969;28;20026;-83
2023/09/18 11:16:38;;;;;;;4.25;1.25;;;23.10;88.60;;;;;;4995395;28;20030;-82
2023/09/18 11:19:05;;;;;;;3.30;0.98;;;23.20;88.50;;;;;;4995196;28;20415;-82
2023/09/18 11:21:33;;;;;;;4.68;1.20;;;23.20;87.70;;;;;;4995218;28;20022;-83
2023/09/18 11:24:05;;;;;;;2.53;1.00;;;23.10;87.60;;;;;;4994916;28;20034;-82
2023/09/18 11:26:33;;;;;;;7.40;1.60;;;23.10;87.40;;;;;;4993281;28;20129;-82
2023/09/18 11:29:03;;;;;;;3.40;1.20;;;23.00;87.10;;;;;;4995238;28;20153;-81
2023/09/18 11:31:50;;;;;;;3.53;1.17;;;23.00;87.30;;;;;;4994114;28;20064;-81
2023/09/18 11:34:26;;;;;;;4.47;1.42;;;23.00;87.30;;;;;;4991086;28;20356;-79
2023/09/18 11:36:52;;;;;;;3.35;1.52;;;22.90;87.00;;;;;;4991161;28;20034;-82
2023/09/18 11:39:37;;;;;;;5.00;1.27;;;22.90;86.90;;;;;;4993535;28;20042;-81
2023/09/18 11:42:26;;;;;;;4.15;1.45;;;22.90;87.20;;;;;;4992093;28;20235;-82
2023/09/18 11:44:52;;;;;;;5.47;1.70;;;22.80;87.10;;;;;;4995811;28;20022;-80
2023/09/18 11:47:23;;;;;;;4.38;1.67;;;22.80;87.30;;;;;;4995992;28;20104;-82
2023/09/18 11:49:54;;;;;;;3.92;1.25;;;22.90;87.70;;;;;;4995664;28;20395;-83
2023/09/18 11:52:22;;;;;;;5.00;1.45;;;23.00;88.40;;;;;;4995326;28;20034;-83
2023/09/18 11:54:48;;;;;;;2.95;1.30;;;23.50;88.20;;;;;;4995847;28;20072;-81
2023/09/18 11:57:14;;;;;;;3.63;1.58;;;23.90;87.70;;;;;;4995004;28;20034;-82
2023/09/18 11:59:42;;;;;;;5.97;1.55;;;24.20;86.00;;;;;;4980127;28;20046;-84
2023/09/18 12:02:09;;;;;;;5.35;1.88;;;24.40;85.40;;;;;;4995477;28;20030;-82
2023/09/18 12:04:35;;;;;;;3.35;1.27;;;24.60;84.80;;;;;;4995685;28;20097;-81
2023/09/18 12:07:04;;;;;;;4.22;1.20;;;24.90;83.70;;;;;;4995167;28;20620;-79
2023/09/18 12:09:35;;;;;;;4.10;0.90;;;25.00;82.90;;;;;;4995184;28;20109;-80
2023/09/18 12:12:05;;;;;;;4.32;1.35;;;25.10;82.10;;;;;;4995517;28;20030;-83
2023/09/18 12:14:34;;;;;;;3.25;1.00;;;25.30;81.20;;;;;;4977787;28;20125;-82
2023/09/18 12:17:01;;;;;;;3.33;1.10;;;25.30;79.40;;;;;;4995216;28;20053;-84
2023/09/18 12:19:27;;;;;;;2.92;0.98;;;25.40;79.10;;;;;;4995299;28;20096;-84
2023/09/18 12:21:52;;;;;;;3.58;1.10;;;25.70;79.00;;;;;;4995133;28;20641;-81
2023/09/18 12:24:27;;;;;;;3.38;1.10;;;26.10;78.10;;;;;;4995073;28;20038;-81
2023/09/18 12:26:54;;;;;;;4.28;1.20;;;26.50;76.30;;;;;;4977472;28;20030;-82
2023/09/18 12:29:20;;;;;;;2.80;0.88;;;26.70;76.00;;;;;;4994850;28;20026;-81
2023/09/18 12:31:46;;;;;;;8.27;1.30;;;27.10;75.50;;;;;;4993304;28;20040;-79
2023/09/18 12:34:21;;;;;;;5.00;1.70;;;27.40;74.50;;;;;;4978088;28;20109;-81
2023/09/18 12:36:47;;;;;;;5.70;1.25;;;27.70;73.20;;;;;;4962335;28;20084;-82
2023/09/18 12:39:16;;;;;;;3.53;1.17;;;28.00;73.30;;;;;;4993880;28;20097;-81
2023/09/18 12:41:44;;;;;;;2.58;1.00;;;28.10;71.80;;;;;;4998860;28;20029;-80